sensor_id;sensor_type;location;lat;lon;timestamp;temperature;humidity
19166;DHT22;9715;48.816;10.520;2022-08-01T00:00:55;23.10;93.20
19166;DHT22;9715;48.816;10.520;2022-08-01T00:03:23;23.10;93.30
19166;DHT22;9715;48.816;10.520;2022-08-01T00:05:51;23.00;93.50
19166;DHT22;9715;48.816;10.520;2022-08-01T00:08:19;23.00;93.60
19166;DHT22;9715;48.816;10.520;2022-08-01T00:10:48;23.00;93.60
19166;DHT22;9715;48.816;10.520;2022-08-01T00:13:16;22.90;93.70
19166;DHT22;9715;48.816;10.520;2022-08-01T00:15:44;22.90;93.90
19166;DHT22;9715;48.816;10.520;2022-08-01T00:18:20;22.90;93.90
19166;DHT22;9715;48.816;10.520;2022-08-01T00:20:48;22.80;93.90
19166;DHT22;9715;48.816;10.520;2022-08-01T00:23:16;22.90;94.00
19166;DHT22;9715;48.816;10.520;2022-08-01T00:25:44;22.80;94.10
19166;DHT22;9715;48.816;10.520;2022-08-01T00:28:14;22.70;94.10
19166;DHT22;9715;48.816;10.520;2022-08-01T00:30:42;22.70;94.30
19166;DHT22;9715;48.816;10.520;2022-08-01T00:33:10;22.70;94.40
19166;DHT22;9715;48.816;10.520;2022-08-01T00:35:38;22.60;94.40
19166;DHT22;9715;48.816;10.520;2022-08-01T00:38:06;22.60;94.50
19166;DHT22;9715;48.816;10.520;2022-08-01T00:40:34;22.60;94.50
19166;DHT22;9715;48.816;10.520;2022-08-01T00:43:03;22.60;94.70
19166;DHT22;9715;48.816;10.520;2022-08-01T00:45:32;22.60;94.80
19166;DHT22;9715;48.816;10.520;2022-08-01T00:48:00;22.60;94.90
19166;DHT22;9715;48.816;10.520;2022-08-01T00:50:28;22.50;95.00
19166;DHT22;9715;48.816;10.520;2022-08-01T00:52:58;22.50;95.10
19166;DHT22;9715;48.816;10.520;2022-08-01T00:55:26;22.50;95.10
19166;DHT22;9715;48.816;10.520;2022-08-01T00:57:55;22.50;95.10
19166;DHT22;9715;48.816;10.520;2022-08-01T01:00:33;22.50;95.30
19166;DHT22;9715;48.816;10.520;2022-08-01T01:03:19;22.50;95.40
19166;DHT22;9715;48.816;10.520;2022-08-01T01:06:15;22.50;95.60
19166;DHT22;9715;48.816;10.520;2022-08-01T01:08:50;22.50;95.60
19166;DHT22;9715;48.816;10.520;2022-08-01T01:11:26;22.50;95.60
19166;DHT22;9715;48.816;10.520;2022-08-01T01:14:01;22.50;95.90
19166;DHT22;9715;48.816;10.520;2022-08-01T01:16:33;22.50;96.40
19166;DHT22;9715;48.816;10.520;2022-08-01T01:19:10;22.50;96.10
19166;DHT22;9715;48.816;10.520;2022-08-01T01:22:13;22.50;96.10
19166;DHT22;9715;48.816;10.520;2022-08-01T01:24:58;22.50;96.30
19166;DHT22;9715;48.816;10.520;2022-08-01T01:27:41;22.50;96.40
19166;DHT22;9715;48.816;10.520;2022-08-01T01:30:12;22.50;96.50
19166;DHT22;9715;48.816;10.520;2022-08-01T01:32:44;22.50;96.70
19166;DHT22;9715;48.816;10.520;2022-08-01T01:35:17;22.50;96.90
19166;DHT22;9715;48.816;10.520;2022-08-01T01:37:49;22.50;97.00
19166;DHT22;9715;48.816;10.520;2022-08-01T01:40:20;22.50;97.20
19166;DHT22;9715;48.816;10.520;2022-08-01T01:42:49;22.40;97.20
19166;DHT22;9715;48.816;10.520;2022-08-01T01:45:21;22.40;97.30
19166;DHT22;9715;48.816;10.520;2022-08-01T01:47:51;22.30;97.50
19166;DHT22;9715;48.816;10.520;2022-08-01T01:50:21;22.20;97.50
19166;DHT22;9715;48.816;10.520;2022-08-01T01:52:51;22.20;97.70
19166;DHT22;9715;48.816;10.520;2022-08-01T01:55:21;22.20;97.60
19166;DHT22;9715;48.816;10.520;2022-08-01T01:57:52;22.20;97.80
19166;DHT22;9715;48.816;10.520;2022-08-01T02:00:22;22.20;97.90
19166;DHT22;9715;48.816;10.520;2022-08-01T02:02:52;22.10;98.10
19166;DHT22;9715;48.816;10.520;2022-08-01T02:05:22;22.10;98.40
19166;DHT22;9715;48.816;10.520;2022-08-01T02:07:50;22.00;98.40
19166;DHT22;9715;48.816;10.520;2022-08-01T02:10:26;22.00;98.50
19166;DHT22;9715;48.816;10.520;2022-08-01T02:12:56;22.00;98.60
19166;DHT22;9715;48.816;10.520;2022-08-01T02:15:26;22.00;98.60
19166;DHT22;9715;48.816;10.520;2022-08-01T02:17:56;22.00;98.70
19166;DHT22;9715;48.816;10.520;2022-08-01T02:20:27;22.00;98.80
19166;DHT22;9715;48.816;10.520;2022-08-01T02:23:01;22.00;98.90
19166;DHT22;9715;48.816;10.520;2022-08-01T02:25:36;21.90;99.10
19166;DHT22;9715;48.816;10.520;2022-08-01T02:28:30;21.90;99.30
19166;DHT22;9715;48.816;10.520;2022-08-01T02:31:04;21.90;99.30
19166;DHT22;9715;48.816;10.520;2022-08-01T02:33:37;21.90;99.30
19166;DHT22;9715;48.816;10.520;2022-08-01T02:36:06;21.90;99.30
19166;DHT22;9715;48.816;10.520;2022-08-01T02:38:56;21.90;99.30
19166;DHT22;9715;48.816;10.520;2022-08-01T02:41:26;21.90;99.30
19166;DHT22;9715;48.816;10.520;2022-08-01T02:43:58;21.90;99.50
19166;DHT22;9715;48.816;10.520;2022-08-01T02:46:35;21.80;99.70
19166;DHT22;9715;48.816;10.520;2022-08-01T02:49:06;21.80;99.70
19166;DHT22;9715;48.816;10.520;2022-08-01T02:51:36;21.80;99.90
19166;DHT22;9715;48.816;10.520;2022-08-01T02:54:07;21.80;99.90
19166;DHT22;9715;48.816;10.520;2022-08-01T02:56:36;21.80;99.90
19166;DHT22;9715;48.816;10.520;2022-08-01T02:59:06;21.80;99.90
19166;DHT22;9715;48.816;10.520;2022-08-01T03:01:36;21.70;99.90
19166;DHT22;9715;48.816;10.520;2022-08-01T03:04:08;21.70;99.90
19166;DHT22;9715;48.816;10.520;2022-08-01T03:06:37;21.70;99.90
19166;DHT22;9715;48.816;10.520;2022-08-01T03:09:10;21.70;99.90
19166;DHT22;9715;48.816;10.520;2022-08-01T03:11:41;21.70;99.90
19166;DHT22;9715;48.816;10.520;2022-08-01T03:14:11;21.60;99.90
19166;DHT22;9715;48.816;10.520;2022-08-01T03:16:43;21.60;99.90
19166;DHT22;9715;48.816;10.520;2022-08-01T03:19:13;21.60;99.90
19166;DHT22;9715;48.816;10.520;2022-08-01T03:21:44;21.60;99.90
19166;DHT22;9715;48.816;10.520;2022-08-01T03:24:13;21.60;99.90
19166;DHT22;9715;48.816;10.520;2022-08-01T03:26:42;21.60;99.90
19166;DHT22;9715;48.816;10.520;2022-08-01T03:29:15;21.50;99.90
19166;DHT22;9715;48.816;10.520;2022-08-01T03:31:46;21.50;99.90
19166;DHT22;9715;48.816;10.520;2022-08-01T03:34:16;21.50;99.90
19166;DHT22;9715;48.816;10.520;2022-08-01T03:36:49;21.50;99.90
19166;DHT22;9715;48.816;10.520;2022-08-01T03:39:22;21.40;99.90
19166;DHT22;9715;48.816;10.520;2022-08-01T03:41:57;21.40;99.90
19166;DHT22;9715;48.816;10.520;2022-08-01T03:44:27;21.40;99.90
19166;DHT22;9715;48.816;10.520;2022-08-01T03:47:04;21.40;99.90
19166;DHT22;9715;48.816;10.520;2022-08-01T03:49:35;21.30;99.90
19166;DHT22;9715;48.816;10.520;2022-08-01T03:52:07;21.30;99.90
19166;DHT22;9715;48.816;10.520;2022-08-01T03:54:38;21.30;99.90
19166;DHT22;9715;48.816;10.520;2022-08-01T03:57:09;21.30;99.90
19166;DHT22;9715;48.816;10.520;2022-08-01T03:59:59;21.30;99.90
19166;DHT22;9715;48.816;10.520;2022-08-01T04:02:29;21.20;99.90
19166;DHT22;9715;48.816;10.520;2022-08-01T04:04:58;21.20;99.90
19166;DHT22;9715;48.816;10.520;2022-08-01T04:07:28;21.10;99.90
19166;DHT22;9715;48.816;10.520;2022-08-01T04:09:56;21.20;99.90
19166;DHT22;9715;48.816;10.520;2022-08-01T04:12:24;21.20;99.90
19166;DHT22;9715;48.816;10.520;2022-08-01T04:14:52;21.10;99.90
19166;DHT22;9715;48.816;10.520;2022-08-01T04:17:20;21.10;99.90
19166;DHT22;9715;48.816;10.520;2022-08-01T04:19:50;21.00;99.90
19166;DHT22;9715;48.816;10.520;2022-08-01T04:22:18;21.10;99.90
19166;DHT22;9715;48.816;10.520;2022-08-01T04:24:50;21.00;99.90
19166;DHT22;9715;48.816;10.520;2022-08-01T04:27:26;21.00;99.90
19166;DHT22;9715;48.816;10.520;2022-08-01T04:30:18;21.00;99.90
19166;DHT22;9715;48.816;10.520;2022-08-01T04:32:49;21.00;99.90
19166;DHT22;9715;48.816;10.520;2022-08-01T04:35:20;21.00;99.90
19166;DHT22;9715;48.816;10.520;2022-08-01T04:38:10;21.00;99.90
19166;DHT22;9715;48.816;10.520;2022-08-01T04:40:41;21.10;99.90
19166;DHT22;9715;48.816;10.520;2022-08-01T04:43:10;21.10;99.90
19166;DHT22;9715;48.816;10.520;2022-08-01T04:45:41;21.10;99.90
19166;DHT22;9715;48.816;10.520;2022-08-01T04:48:13;21.20;99.90
19166;DHT22;9715;48.816;10.520;2022-08-01T04:50:44;21.30;99.90
19166;DHT22;9715;48.816;10.520;2022-08-01T04:53:14;21.30;99.90
19166;DHT22;9715;48.816;10.520;2022-08-01T04:55:43;21.30;99.90
19166;DHT22;9715;48.816;10.520;2022-08-01T04:58:13;21.30;99.90
19166;DHT22;9715;48.816;10.520;2022-08-01T05:00:44;21.30;99.90
19166;DHT22;9715;48.816;10.520;2022-08-01T05:03:13;21.30;99.90
19166;DHT22;9715;48.816;10.520;2022-08-01T05:05:41;21.30;99.90
19166;DHT22;9715;48.816;10.520;2022-08-01T05:08:11;21.30;99.90
19166;DHT22;9715;48.816;10.520;2022-08-01T05:10:39;21.30;99.90
19166;DHT22;9715;48.816;10.520;2022-08-01T05:13:07;21.30;99.90
19166;DHT22;9715;48.816;10.520;2022-08-01T05:15:35;21.30;99.90
19166;DHT22;9715;48.816;10.520;2022-08-01T05:18:04;21.30;99.90
19166;DHT22;9715;48.816;10.520;2022-08-01T05:20:35;21.30;99.90
19166;DHT22;9715;48.816;10.520;2022-08-01T05:23:03;21.20;99.90
19166;DHT22;9715;48.816;10.520;2022-08-01T05:25:33;21.20;99.90
19166;DHT22;9715;48.816;10.520;2022-08-01T05:28:21;21.20;99.90
19166;DHT22;9715;48.816;10.520;2022-08-01T05:30:49;21.20;99.90
19166;DHT22;9715;48.816;10.520;2022-08-01T05:33:17;21.20;99.90
19166;DHT22;9715;48.816;10.520;2022-08-01T05:35:47;21.30;99.90
19166;DHT22;9715;48.816;10.520;2022-08-01T05:38:15;21.30;99.90
19166;DHT22;9715;48.816;10.520;2022-08-01T05:40:44;21.30;99.90
19166;DHT22;9715;48.816;10.520;2022-08-01T05:43:12;21.40;99.90
19166;DHT22;9715;48.816;10.520;2022-08-01T05:45:41;21.40;99.90
19166;DHT22;9715;48.816;10.520;2022-08-01T05:48:09;21.40;99.90
19166;DHT22;9715;48.816;10.520;2022-08-01T05:50:37;21.40;99.90
19166;DHT22;9715;48.816;10.520;2022-08-01T05:53:05;21.40;99.90
19166;DHT22;9715;48.816;10.520;2022-08-01T05:55:34;21.50;99.90
19166;DHT22;9715;48.816;10.520;2022-08-01T05:58:03;21.40;99.90
19166;DHT22;9715;48.816;10.520;2022-08-01T06:00:31;21.40;99.90
19166;DHT22;9715;48.816;10.520;2022-08-01T06:02:59;21.50;99.90
19166;DHT22;9715;48.816;10.520;2022-08-01T06:05:27;21.50;99.90
19166;DHT22;9715;48.816;10.520;2022-08-01T06:07:56;21.50;99.90
19166;DHT22;9715;48.816;10.520;2022-08-01T06:10:24;21.50;99.90
19166;DHT22;9715;48.816;10.520;2022-08-01T06:12:52;21.60;99.90
19166;DHT22;9715;48.816;10.520;2022-08-01T06:15:22;21.60;99.90
19166;DHT22;9715;48.816;10.520;2022-08-01T06:17:50;21.60;99.90
19166;DHT22;9715;48.816;10.520;2022-08-01T06:20:18;21.70;99.90
19166;DHT22;9715;48.816;10.520;2022-08-01T06:22:46;21.70;99.90
19166;DHT22;9715;48.816;10.520;2022-08-01T06:25:18;21.80;99.90
19166;DHT22;9715;48.816;10.520;2022-08-01T06:27:47;21.90;99.90
19166;DHT22;9715;48.816;10.520;2022-08-01T06:30:16;21.90;99.90
19166;DHT22;9715;48.816;10.520;2022-08-01T06:32:45;21.90;99.90
19166;DHT22;9715;48.816;10.520;2022-08-01T06:35:14;21.90;99.90
19166;DHT22;9715;48.816;10.520;2022-08-01T06:37:42;21.90;99.90
19166;DHT22;9715;48.816;10.520;2022-08-01T06:40:11;21.90;99.90
19166;DHT22;9715;48.816;10.520;2022-08-01T06:42:43;21.90;99.90
19166;DHT22;9715;48.816;10.520;2022-08-01T06:45:13;22.00;99.90
19166;DHT22;9715;48.816;10.520;2022-08-01T06:47:43;21.90;99.90
19166;DHT22;9715;48.816;10.520;2022-08-01T06:50:18;22.00;99.90
19166;DHT22;9715;48.816;10.520;2022-08-01T06:52:46;22.00;99.90
19166;DHT22;9715;48.816;10.520;2022-08-01T06:55:14;22.00;99.90
19166;DHT22;9715;48.816;10.520;2022-08-01T06:57:46;22.00;99.90
19166;DHT22;9715;48.816;10.520;2022-08-01T07:00:15;22.10;99.90
19166;DHT22;9715;48.816;10.520;2022-08-01T07:02:45;22.20;99.90
19166;DHT22;9715;48.816;10.520;2022-08-01T07:05:13;22.20;99.90
19166;DHT22;9715;48.816;10.520;2022-08-01T07:07:42;22.30;99.90
19166;DHT22;9715;48.816;10.520;2022-08-01T07:10:11;22.30;99.90
19166;DHT22;9715;48.816;10.520;2022-08-01T07:12:39;22.30;99.90
19166;DHT22;9715;48.816;10.520;2022-08-01T07:15:08;22.20;99.90
19166;DHT22;9715;48.816;10.520;2022-08-01T07:17:37;22.40;99.90
19166;DHT22;9715;48.816;10.520;2022-08-01T07:20:07;22.40;99.90
19166;DHT22;9715;48.816;10.520;2022-08-01T07:22:36;22.50;99.90
19166;DHT22;9715;48.816;10.520;2022-08-01T07:25:07;22.60;99.90
19166;DHT22;9715;48.816;10.520;2022-08-01T07:27:35;22.60;99.90
19166;DHT22;9715;48.816;10.520;2022-08-01T07:30:05;22.70;99.90
19166;DHT22;9715;48.816;10.520;2022-08-01T07:32:33;22.80;99.90
19166;DHT22;9715;48.816;10.520;2022-08-01T07:35:01;22.80;99.90
19166;DHT22;9715;48.816;10.520;2022-08-01T07:37:29;22.80;99.90
19166;DHT22;9715;48.816;10.520;2022-08-01T07:40:16;22.90;99.90
19166;DHT22;9715;48.816;10.520;2022-08-01T07:42:45;23.00;99.90
19166;DHT22;9715;48.816;10.520;2022-08-01T07:45:13;23.10;99.90
19166;DHT22;9715;48.816;10.520;2022-08-01T07:47:42;23.20;99.90
19166;DHT22;9715;48.816;10.520;2022-08-01T07:50:10;23.20;99.90
19166;DHT22;9715;48.816;10.520;2022-08-01T07:52:39;23.30;99.90
19166;DHT22;9715;48.816;10.520;2022-08-01T07:55:08;23.40;99.90
19166;DHT22;9715;48.816;10.520;2022-08-01T07:57:38;23.40;99.90
19166;DHT22;9715;48.816;10.520;2022-08-01T08:00:07;23.40;99.90
19166;DHT22;9715;48.816;10.520;2022-08-01T08:02:36;23.50;99.90
19166;DHT22;9715;48.816;10.520;2022-08-01T08:05:05;23.50;99.90
19166;DHT22;9715;48.816;10.520;2022-08-01T08:07:34;23.50;99.90
19166;DHT22;9715;48.816;10.520;2022-08-01T08:10:02;23.50;99.90
19166;DHT22;9715;48.816;10.520;2022-08-01T08:12:32;23.60;99.90
19166;DHT22;9715;48.816;10.520;2022-08-01T08:15:01;23.70;99.90
19166;DHT22;9715;48.816;10.520;2022-08-01T08:17:32;23.80;99.90
19166;DHT22;9715;48.816;10.520;2022-08-01T08:20:03;23.80;99.90
19166;DHT22;9715;48.816;10.520;2022-08-01T08:22:35;23.80;99.90
19166;DHT22;9715;48.816;10.520;2022-08-01T08:25:04;23.90;99.90
19166;DHT22;9715;48.816;10.520;2022-08-01T08:27:33;23.90;99.90
19166;DHT22;9715;48.816;10.520;2022-08-01T08:30:06;24.00;99.90
19166;DHT22;9715;48.816;10.520;2022-08-01T08:32:35;24.00;99.90
19166;DHT22;9715;48.816;10.520;2022-08-01T08:35:04;24.00;99.90
19166;DHT22;9715;48.816;10.520;2022-08-01T08:37:33;24.00;99.90
19166;DHT22;9715;48.816;10.520;2022-08-01T08:40:09;24.10;99.90
19166;DHT22;9715;48.816;10.520;2022-08-01T08:42:39;24.20;99.90
19166;DHT22;9715;48.816;10.520;2022-08-01T08:45:10;24.20;99.90
19166;DHT22;9715;48.816;10.520;2022-08-01T08:47:39;24.30;99.90
19166;DHT22;9715;48.816;10.520;2022-08-01T08:50:09;24.20;99.90
19166;DHT22;9715;48.816;10.520;2022-08-01T08:52:38;24.20;99.90
19166;DHT22;9715;48.816;10.520;2022-08-01T08:55:08;24.20;99.90
19166;DHT22;9715;48.816;10.520;2022-08-01T08:57:39;24.30;99.90
19166;DHT22;9715;48.816;10.520;2022-08-01T09:00:10;24.40;99.90
19166;DHT22;9715;48.816;10.520;2022-08-01T09:02:41;24.50;99.90
19166;DHT22;9715;48.816;10.520;2022-08-01T09:05:10;24.50;99.90
19166;DHT22;9715;48.816;10.520;2022-08-01T09:07:45;24.50;99.90
19166;DHT22;9715;48.816;10.520;2022-08-01T09:10:13;24.70;99.90
19166;DHT22;9715;48.816;10.520;2022-08-01T09:13:01;24.80;99.90
19166;DHT22;9715;48.816;10.520;2022-08-01T09:15:40;24.80;99.90
19166;DHT22;9715;48.816;10.520;2022-08-01T09:18:08;24.80;99.90
19166;DHT22;9715;48.816;10.520;2022-08-01T09:20:36;24.90;99.90
19166;DHT22;9715;48.816;10.520;2022-08-01T09:23:04;24.90;99.90
19166;DHT22;9715;48.816;10.520;2022-08-01T09:25:50;24.90;99.90
19166;DHT22;9715;48.816;10.520;2022-08-01T09:28:28;24.90;99.90
19166;DHT22;9715;48.816;10.520;2022-08-01T09:30:57;24.90;99.90
19166;DHT22;9715;48.816;10.520;2022-08-01T09:33:26;25.00;99.90
19166;DHT22;9715;48.816;10.520;2022-08-01T09:36:16;25.10;99.90
19166;DHT22;9715;48.816;10.520;2022-08-01T09:38:44;25.30;99.90
19166;DHT22;9715;48.816;10.520;2022-08-01T09:41:17;25.50;99.90
19166;DHT22;9715;48.816;10.520;2022-08-01T09:43:49;25.70;99.90
19166;DHT22;9715;48.816;10.520;2022-08-01T09:46:21;25.70;99.90
19166;DHT22;9715;48.816;10.520;2022-08-01T09:48:59;25.70;99.90
19166;DHT22;9715;48.816;10.520;2022-08-01T09:51:29;25.70;99.90
19166;DHT22;9715;48.816;10.520;2022-08-01T09:54:28;25.80;99.90
19166;DHT22;9715;48.816;10.520;2022-08-01T09:57:08;25.80;99.90
19166;DHT22;9715;48.816;10.520;2022-08-01T09:59:37;25.60;99.90
19166;DHT22;9715;48.816;10.520;2022-08-01T10:02:32;25.60;99.90
19166;DHT22;9715;48.816;10.520;2022-08-01T10:05:01;25.70;99.90
19166;DHT22;9715;48.816;10.520;2022-08-01T10:07:35;25.80;99.90
19166;DHT22;9715;48.816;10.520;2022-08-01T10:10:11;25.80;99.90
19166;DHT22;9715;48.816;10.520;2022-08-01T10:12:41;26.00;99.90
19166;DHT22;9715;48.816;10.520;2022-08-01T10:15:13;26.10;99.90
19166;DHT22;9715;48.816;10.520;2022-08-01T10:17:52;26.20;99.90
19166;DHT22;9715;48.816;10.520;2022-08-01T10:20:25;26.30;99.90
19166;DHT22;9715;48.816;10.520;2022-08-01T10:22:59;26.20;99.90
19166;DHT22;9715;48.816;10.520;2022-08-01T10:25:36;26.00;99.90
19166;DHT22;9715;48.816;10.520;2022-08-01T10:28:14;25.90;99.90
19166;DHT22;9715;48.816;10.520;2022-08-01T10:30:49;26.00;99.90
19166;DHT22;9715;48.816;10.520;2022-08-01T10:33:23;26.40;99.90
19166;DHT22;9715;48.816;10.520;2022-08-01T10:36:12;26.60;99.90
19166;DHT22;9715;48.816;10.520;2022-08-01T10:38:42;26.80;99.90
19166;DHT22;9715;48.816;10.520;2022-08-01T10:41:13;26.80;99.90
19166;DHT22;9715;48.816;10.520;2022-08-01T10:43:42;26.80;99.90
19166;DHT22;9715;48.816;10.520;2022-08-01T10:46:12;26.70;99.90
19166;DHT22;9715;48.816;10.520;2022-08-01T10:48:47;26.60;99.90
19166;DHT22;9715;48.816;10.520;2022-08-01T10:51:18;26.70;99.90
19166;DHT22;9715;48.816;10.520;2022-08-01T10:54:09;26.90;99.90
19166;DHT22;9715;48.816;10.520;2022-08-01T10:56:44;27.10;99.90
19166;DHT22;9715;48.816;10.520;2022-08-01T10:59:15;27.30;99.90
19166;DHT22;9715;48.816;10.520;2022-08-01T11:02:07;27.50;99.90
19166;DHT22;9715;48.816;10.520;2022-08-01T11:04:46;27.70;99.90
19166;DHT22;9715;48.816;10.520;2022-08-01T11:07:22;27.80;98.80
19166;DHT22;9715;48.816;10.520;2022-08-01T11:10:04;27.90;99.20
19166;DHT22;9715;48.816;10.520;2022-08-01T11:12:42;27.80;98.60
19166;DHT22;9715;48.816;10.520;2022-08-01T11:15:19;27.60;98.50
19166;DHT22;9715;48.816;10.520;2022-08-01T11:18:00;27.30;99.30
19166;DHT22;9715;48.816;10.520;2022-08-01T11:20:31;27.20;99.60
19166;DHT22;9715;48.816;10.520;2022-08-01T11:23:29;27.20;99.20
19166;DHT22;9715;48.816;10.520;2022-08-01T11:26:20;27.30;99.50
19166;DHT22;9715;48.816;10.520;2022-08-01T11:29:17;27.30;99.90
19166;DHT22;9715;48.816;10.520;2022-08-01T11:31:48;27.60;99.50
19166;DHT22;9715;48.816;10.520;2022-08-01T11:34:17;27.70;98.50
19166;DHT22;9715;48.816;10.520;2022-08-01T11:36:46;27.90;98.50
19166;DHT22;9715;48.816;10.520;2022-08-01T11:39:25;27.90;97.50
19166;DHT22;9715;48.816;10.520;2022-08-01T11:41:53;27.90;97.40
19166;DHT22;9715;48.816;10.520;2022-08-01T11:44:23;27.80;98.10
19166;DHT22;9715;48.816;10.520;2022-08-01T11:46:58;27.80;98.80
19166;DHT22;9715;48.816;10.520;2022-08-01T11:49:44;28.00;99.10
19166;DHT22;9715;48.816;10.520;2022-08-01T11:52:18;28.00;98.10
19166;DHT22;9715;48.816;10.520;2022-08-01T11:54:50;28.10;97.70
19166;DHT22;9715;48.816;10.520;2022-08-01T11:57:20;28.30;97.10
19166;DHT22;9715;48.816;10.520;2022-08-01T11:59:50;28.40;96.00
19166;DHT22;9715;48.816;10.520;2022-08-01T12:02:30;28.30;96.00
19166;DHT22;9715;48.816;10.520;2022-08-01T12:05:01;28.40;96.40
19166;DHT22;9715;48.816;10.520;2022-08-01T12:07:33;28.50;95.90
19166;DHT22;9715;48.816;10.520;2022-08-01T12:10:04;28.60;94.70
19166;DHT22;9715;48.816;10.520;2022-08-01T12:12:33;28.80;94.10
19166;DHT22;9715;48.816;10.520;2022-08-01T12:15:05;29.00;94.20
19166;DHT22;9715;48.816;10.520;2022-08-01T12:17:38;29.30;93.50
19166;DHT22;9715;48.816;10.520;2022-08-01T12:20:13;29.50;92.70
19166;DHT22;9715;48.816;10.520;2022-08-01T12:22:43;29.60;92.70
19166;DHT22;9715;48.816;10.520;2022-08-01T12:25:12;29.70;92.40
19166;DHT22;9715;48.816;10.520;2022-08-01T12:27:42;29.70;91.80
19166;DHT22;9715;48.816;10.520;2022-08-01T12:30:12;29.70;91.80
19166;DHT22;9715;48.816;10.520;2022-08-01T12:32:41;29.50;92.40
19166;DHT22;9715;48.816;10.520;2022-08-01T12:35:11;29.20;92.80
19166;DHT22;9715;48.816;10.520;2022-08-01T12:37:47;28.80;93.60
19166;DHT22;9715;48.816;10.520;2022-08-01T12:40:18;28.60;94.20
19166;DHT22;9715;48.816;10.520;2022-08-01T12:42:47;28.60;94.70
19166;DHT22;9715;48.816;10.520;2022-08-01T12:45:17;28.50;94.00
19166;DHT22;9715;48.816;10.520;2022-08-01T12:47:46;28.50;94.20
19166;DHT22;9715;48.816;10.520;2022-08-01T12:50:18;28.30;93.30
19166;DHT22;9715;48.816;10.520;2022-08-01T12:52:49;28.30;93.20
19166;DHT22;9715;48.816;10.520;2022-08-01T12:55:19;28.50;93.10
19166;DHT22;9715;48.816;10.520;2022-08-01T12:57:49;28.80;92.60
19166;DHT22;9715;48.816;10.520;2022-08-01T13:00:21;29.10;92.30
19166;DHT22;9715;48.816;10.520;2022-08-01T13:03:00;29.50;91.80
19166;DHT22;9715;48.816;10.520;2022-08-01T13:05:41;29.90;91.10
19166;DHT22;9715;48.816;10.520;2022-08-01T13:08:12;30.10;90.40
19166;DHT22;9715;48.816;10.520;2022-08-01T13:10:41;30.20;90.20
19166;DHT22;9715;48.816;10.520;2022-08-01T13:13:10;30.00;90.60
19166;DHT22;9715;48.816;10.520;2022-08-01T13:16:03;29.60;91.60
19166;DHT22;9715;48.816;10.520;2022-08-01T13:18:33;29.20;91.50
19166;DHT22;9715;48.816;10.520;2022-08-01T13:21:08;28.90;91.30
19166;DHT22;9715;48.816;10.520;2022-08-01T13:23:38;28.70;91.20
19166;DHT22;9715;48.816;10.520;2022-08-01T13:26:40;28.80;91.20
19166;DHT22;9715;48.816;10.520;2022-08-01T13:29:10;29.40;91.40
19166;DHT22;9715;48.816;10.520;2022-08-01T13:31:39;29.80;91.30
19166;DHT22;9715;48.816;10.520;2022-08-01T13:34:07;29.90;90.90
19166;DHT22;9715;48.816;10.520;2022-08-01T13:36:36;29.80;90.30
19166;DHT22;9715;48.816;10.520;2022-08-01T13:39:06;29.60;90.80
19166;DHT22;9715;48.816;10.520;2022-08-01T13:41:52;29.20;91.10
19166;DHT22;9715;48.816;10.520;2022-08-01T13:44:20;28.90;91.40
19166;DHT22;9715;48.816;10.520;2022-08-01T13:46:48;28.70;91.80
19166;DHT22;9715;48.816;10.520;2022-08-01T13:49:17;28.60;91.30
19166;DHT22;9715;48.816;10.520;2022-08-01T13:51:46;28.70;91.00
19166;DHT22;9715;48.816;10.520;2022-08-01T13:54:18;29.00;91.20
19166;DHT22;9715;48.816;10.520;2022-08-01T13:56:46;29.10;90.80
19166;DHT22;9715;48.816;10.520;2022-08-01T13:59:14;29.00;90.90
19166;DHT22;9715;48.816;10.520;2022-08-01T14:01:42;29.00;91.00
19166;DHT22;9715;48.816;10.520;2022-08-01T14:04:10;28.90;91.00
19166;DHT22;9715;48.816;10.520;2022-08-01T14:06:38;28.70;90.70
19166;DHT22;9715;48.816;10.520;2022-08-01T14:09:07;28.60;91.30
19166;DHT22;9715;48.816;10.520;2022-08-01T14:11:45;28.50;92.00
19166;DHT22;9715;48.816;10.520;2022-08-01T14:14:13;28.40;92.00
19166;DHT22;9715;48.816;10.520;2022-08-01T14:16:42;28.30;91.80
19166;DHT22;9715;48.816;10.520;2022-08-01T14:19:11;28.20;91.80
19166;DHT22;9715;48.816;10.520;2022-08-01T14:21:39;28.10;92.20
19166;DHT22;9715;48.816;10.520;2022-08-01T14:24:08;28.20;92.00
19166;DHT22;9715;48.816;10.520;2022-08-01T14:26:36;28.40;91.90
19166;DHT22;9715;48.816;10.520;2022-08-01T14:29:05;28.60;91.90
19166;DHT22;9715;48.816;10.520;2022-08-01T14:31:33;28.70;91.30
19166;DHT22;9715;48.816;10.520;2022-08-01T14:34:02;28.70;91.70
19166;DHT22;9715;48.816;10.520;2022-08-01T14:36:30;28.60;91.30
19166;DHT22;9715;48.816;10.520;2022-08-01T14:39:04;28.40;91.00
19166;DHT22;9715;48.816;10.520;2022-08-01T14:41:40;28.30;91.30
19166;DHT22;9715;48.816;10.520;2022-08-01T14:44:09;28.20;91.90
19166;DHT22;9715;48.816;10.520;2022-08-01T14:46:37;28.60;91.70
19166;DHT22;9715;48.816;10.520;2022-08-01T14:49:24;29.20;90.60
19166;DHT22;9715;48.816;10.520;2022-08-01T14:51:52;29.70;90.10
19166;DHT22;9715;48.816;10.520;2022-08-01T14:54:20;29.90;89.20
19166;DHT22;9715;48.816;10.520;2022-08-01T14:56:55;29.90;89.00
19166;DHT22;9715;48.816;10.520;2022-08-01T14:59:24;29.80;89.20
19166;DHT22;9715;48.816;10.520;2022-08-01T15:01:52;29.70;89.70
19166;DHT22;9715;48.816;10.520;2022-08-01T15:04:20;29.60;90.30
19166;DHT22;9715;48.816;10.520;2022-08-01T15:06:49;29.60;89.20
19166;DHT22;9715;48.816;10.520;2022-08-01T15:09:17;29.90;89.30
19166;DHT22;9715;48.816;10.520;2022-08-01T15:11:45;29.80;87.90
19166;DHT22;9715;48.816;10.520;2022-08-01T15:14:13;29.70;87.30
19166;DHT22;9715;48.816;10.520;2022-08-01T15:17:00;29.70;87.70
19166;DHT22;9715;48.816;10.520;2022-08-01T15:19:28;29.90;86.90
19166;DHT22;9715;48.816;10.520;2022-08-01T15:21:57;29.80;86.70
19166;DHT22;9715;48.816;10.520;2022-08-01T15:24:27;29.60;87.60
19166;DHT22;9715;48.816;10.520;2022-08-01T15:26:55;29.70;87.40
19166;DHT22;9715;48.816;10.520;2022-08-01T15:29:23;29.70;86.70
19166;DHT22;9715;48.816;10.520;2022-08-01T15:31:51;29.40;87.50
19166;DHT22;9715;48.816;10.520;2022-08-01T15:34:21;29.20;88.30
19166;DHT22;9715;48.816;10.520;2022-08-01T15:36:49;29.20;89.10
19166;DHT22;9715;48.816;10.520;2022-08-01T15:39:17;29.30;88.00
19166;DHT22;9715;48.816;10.520;2022-08-01T15:41:45;29.50;88.00
19166;DHT22;9715;48.816;10.520;2022-08-01T15:44:13;29.70;86.40
19166;DHT22;9715;48.816;10.520;2022-08-01T15:46:44;29.70;86.50
19166;DHT22;9715;48.816;10.520;2022-08-01T15:49:12;29.40;86.90
19166;DHT22;9715;48.816;10.520;2022-08-01T15:51:42;29.20;87.70
19166;DHT22;9715;48.816;10.520;2022-08-01T15:54:11;28.90;88.60
19166;DHT22;9715;48.816;10.520;2022-08-01T15:56:40;28.60;89.70
19166;DHT22;9715;48.816;10.520;2022-08-01T15:59:09;28.40;90.10